Terminal Aerodrome Forecast
Issued by NWS North Platte, NE

Home | Current Version | Previous Version | Graphics & Text | Print | Product List | Glossary On
Versions: 1 2 3 4 5 6 7 8 9 10 11 12 13
366
FTUS43 KLBF 180520
TAFVTN
TAF
KVTN 180520Z 1806/1906 22008KT P6SM SCT250
     FM181200 29010KT P6SM FEW250
     FM181400 33016G25KT P6SM SKC
     FM182100 34010KT P6SM SKC
     FM190000 VRB06KT P6SM SKC=

USA.gov is the U.S. government's official web portal to all federal, state and local government web resources and services.